sensor_id;sensor_type;location;lat;lon;timestamp;P1;durP1;ratioP1;P2;durP2;ratioP2
61385;SDS011;47256;18.904;-99.054;2024-03-08T00:02:01;19.55;;;5.00;;
61385;SDS011;47256;18.904;-99.054;2024-03-08T00:04:30;11.05;;;3.72;;
61385;SDS011;47256;18.904;-99.054;2024-03-08T00:06:57;10.27;;;3.83;;
61385;SDS011;47256;18.904;-99.054;2024-03-08T00:09:28;7.57;;;4.32;;
61385;SDS011;47256;18.904;-99.054;2024-03-08T00:11:56;15.05;;;4.72;;
61385;SDS011;47256;18.904;-99.054;2024-03-08T00:14:26;11.93;;;5.45;;
61385;SDS011;47256;18.904;-99.054;2024-03-08T00:16:53;6.45;;;4.38;;
61385;SDS011;47256;18.904;-99.054;2024-03-08T00:19:22;9.80;;;4.07;;
61385;SDS011;47256;18.904;-99.054;2024-03-08T00:21:49;6.43;;;4.03;;
61385;SDS011;47256;18.904;-99.054;2024-03-08T00:24:25;10.95;;;4.50;;
61385;SDS011;47256;18.904;-99.054;2024-03-08T00:26:54;11.35;;;4.88;;
61385;SDS011;47256;18.904;-99.054;2024-03-08T00:29:23;17.85;;;4.32;;
61385;SDS011;47256;18.904;-99.054;2024-03-08T00:31:51;11.52;;;5.07;;
61385;SDS011;47256;18.904;-99.054;2024-03-08T00:34:22;14.05;;;3.97;;
61385;SDS011;47256;18.904;-99.054;2024-03-08T00:36:49;14.07;;;4.05;;
61385;SDS011;47256;18.904;-99.054;2024-03-08T00:39:20;13.98;;;3.35;;
61385;SDS011;47256;18.904;-99.054;2024-03-08T00:41:47;9.18;;;4.38;;
61385;SDS011;47256;18.904;-99.054;2024-03-08T00:44:18;9.48;;;4.10;;
61385;SDS011;47256;18.904;-99.054;2024-03-08T00:46:46;18.92;;;6.05;;
61385;SDS011;47256;18.904;-99.054;2024-03-08T00:49:14;9.75;;;5.20;;
61385;SDS011;47256;18.904;-99.054;2024-03-08T00:51:43;14.02;;;6.32;;
61385;SDS011;47256;18.904;-99.054;2024-03-08T00:54:17;11.75;;;6.20;;
61385;SDS011;47256;18.904;-99.054;2024-03-08T00:56:44;21.05;;;5.38;;
61385;SDS011;47256;18.904;-99.054;2024-03-08T00:59:17;9.55;;;4.28;;
61385;SDS011;47256;18.904;-99.054;2024-03-08T01:01:46;10.48;;;4.38;;
61385;SDS011;47256;18.904;-99.054;2024-03-08T01:04:19;7.55;;;4.20;;
61385;SDS011;47256;18.904;-99.054;2024-03-08T01:06:51;11.13;;;4.13;;
61385;SDS011;47256;18.904;-99.054;2024-03-08T01:09:30;9.27;;;3.30;;
61385;SDS011;47256;18.904;-99.054;2024-03-08T01:11:58;10.60;;;3.78;;
61385;SDS011;47256;18.904;-99.054;2024-03-08T01:14:25;11.25;;;2.95;;
61385;SDS011;47256;18.904;-99.054;2024-03-08T01:16:57;7.15;;;3.47;;
61385;SDS011;47256;18.904;-99.054;2024-03-08T01:19:27;9.02;;;3.22;;
61385;SDS011;47256;18.904;-99.054;2024-03-08T01:21:56;15.45;;;3.75;;
61385;SDS011;47256;18.904;-99.054;2024-03-08T01:24:23;9.73;;;4.15;;
61385;SDS011;47256;18.904;-99.054;2024-03-08T01:26:51;10.38;;;3.60;;
61385;SDS011;47256;18.904;-99.054;2024-03-08T01:29:25;11.75;;;3.42;;
61385;SDS011;47256;18.904;-99.054;2024-03-08T01:31:58;7.18;;;3.10;;
61385;SDS011;47256;18.904;-99.054;2024-03-08T01:34:27;8.38;;;3.15;;
61385;SDS011;47256;18.904;-99.054;2024-03-08T01:36:55;6.57;;;3.17;;
61385;SDS011;47256;18.904;-99.054;2024-03-08T01:39:23;11.30;;;3.65;;
61385;SDS011;47256;18.904;-99.054;2024-03-08T01:41:51;11.60;;;4.00;;
61385;SDS011;47256;18.904;-99.054;2024-03-08T01:44:20;17.20;;;4.68;;
61385;SDS011;47256;18.904;-99.054;2024-03-08T01:46:48;5.95;;;4.03;;
61385;SDS011;47256;18.904;-99.054;2024-03-08T01:49:22;13.23;;;5.30;;
61385;SDS011;47256;18.904;-99.054;2024-03-08T01:51:54;9.68;;;4.60;;
61385;SDS011;47256;18.904;-99.054;2024-03-08T01:54:24;22.33;;;6.35;;
61385;SDS011;47256;18.904;-99.054;2024-03-08T01:56:54;24.20;;;10.80;;
61385;SDS011;47256;18.904;-99.054;2024-03-08T01:59:22;37.60;;;14.55;;
61385;SDS011;47256;18.904;-99.054;2024-03-08T02:02:01;40.92;;;16.73;;
61385;SDS011;47256;18.904;-99.054;2024-03-08T02:04:31;30.67;;;16.15;;
61385;SDS011;47256;18.904;-99.054;2024-03-08T02:07:04;34.53;;;15.48;;
61385;SDS011;47256;18.904;-99.054;2024-03-08T02:09:32;53.10;;;20.10;;
61385;SDS011;47256;18.904;-99.054;2024-03-08T02:11:59;47.08;;;20.48;;
61385;SDS011;47256;18.904;-99.054;2024-03-08T02:14:31;47.15;;;21.83;;
61385;SDS011;47256;18.904;-99.054;2024-03-08T02:17:02;45.38;;;19.15;;
61385;SDS011;47256;18.904;-99.054;2024-03-08T02:19:37;38.92;;;19.08;;
61385;SDS011;47256;18.904;-99.054;2024-03-08T02:22:08;41.17;;;18.60;;
61385;SDS011;47256;18.904;-99.054;2024-03-08T02:24:39;45.03;;;17.90;;
61385;SDS011;47256;18.904;-99.054;2024-03-08T02:27:07;41.03;;;17.83;;
61385;SDS011;47256;18.904;-99.054;2024-03-08T02:29:38;41.75;;;18.05;;
61385;SDS011;47256;18.904;-99.054;2024-03-08T02:32:14;35.47;;;16.25;;
61385;SDS011;47256;18.904;-99.054;2024-03-08T02:34:42;32.53;;;16.13;;
61385;SDS011;47256;18.904;-99.054;2024-03-08T02:37:10;27.73;;;12.65;;
61385;SDS011;47256;18.904;-99.054;2024-03-08T02:39:41;22.13;;;9.60;;
61385;SDS011;47256;18.904;-99.054;2024-03-08T02:42:12;31.33;;;12.30;;
61385;SDS011;47256;18.904;-99.054;2024-03-08T02:44:43;25.50;;;9.35;;
61385;SDS011;47256;18.904;-99.054;2024-03-08T02:47:10;28.65;;;10.65;;
61385;SDS011;47256;18.904;-99.054;2024-03-08T02:49:46;25.00;;;11.00;;
61385;SDS011;47256;18.904;-99.054;2024-03-08T02:52:13;41.63;;;13.95;;
61385;SDS011;47256;18.904;-99.054;2024-03-08T02:54:45;41.55;;;10.13;;
61385;SDS011;47256;18.904;-99.054;2024-03-08T02:57:12;26.15;;;9.75;;
61385;SDS011;47256;18.904;-99.054;2024-03-08T02:59:41;21.58;;;9.38;;
61385;SDS011;47256;18.904;-99.054;2024-03-08T03:02:09;28.60;;;9.20;;
61385;SDS011;47256;18.904;-99.054;2024-03-08T03:04:43;14.40;;;6.82;;
61385;SDS011;47256;18.904;-99.054;2024-03-08T03:07:13;15.27;;;6.70;;
61385;SDS011;47256;18.904;-99.054;2024-03-08T03:09:40;17.33;;;7.47;;
61385;SDS011;47256;18.904;-99.054;2024-03-08T03:12:07;17.52;;;7.68;;
61385;SDS011;47256;18.904;-99.054;2024-03-08T03:14:38;13.02;;;6.35;;
61385;SDS011;47256;18.904;-99.054;2024-03-08T03:17:08;18.65;;;6.30;;
61385;SDS011;47256;18.904;-99.054;2024-03-08T03:19:36;22.63;;;6.40;;
61385;SDS011;47256;18.904;-99.054;2024-03-08T03:22:07;13.43;;;5.88;;
61385;SDS011;47256;18.904;-99.054;2024-03-08T03:24:36;23.90;;;6.80;;
61385;SDS011;47256;18.904;-99.054;2024-03-08T03:27:05;15.30;;;5.63;;
61385;SDS011;47256;18.904;-99.054;2024-03-08T03:29:39;15.02;;;6.18;;
61385;SDS011;47256;18.904;-99.054;2024-03-08T03:32:13;16.55;;;6.90;;
61385;SDS011;47256;18.904;-99.054;2024-03-08T03:34:41;14.38;;;7.05;;
61385;SDS011;47256;18.904;-99.054;2024-03-08T03:37:13;13.85;;;7.10;;
61385;SDS011;47256;18.904;-99.054;2024-03-08T03:39:40;17.58;;;7.90;;
61385;SDS011;47256;18.904;-99.054;2024-03-08T03:42:19;16.48;;;7.45;;
61385;SDS011;47256;18.904;-99.054;2024-03-08T03:44:48;20.85;;;8.07;;
61385;SDS011;47256;18.904;-99.054;2024-03-08T03:47:15;14.15;;;7.40;;
61385;SDS011;47256;18.904;-99.054;2024-03-08T03:49:42;14.75;;;7.88;;
61385;SDS011;47256;18.904;-99.054;2024-03-08T03:52:13;18.85;;;6.50;;
61385;SDS011;47256;18.904;-99.054;2024-03-08T03:54:44;20.85;;;7.72;;
61385;SDS011;47256;18.904;-99.054;2024-03-08T03:57:11;16.65;;;7.68;;
61385;SDS011;47256;18.904;-99.054;2024-03-08T03:59:40;30.90;;;9.27;;
61385;SDS011;47256;18.904;-99.054;2024-03-08T04:02:10;27.38;;;9.45;;
61385;SDS011;47256;18.904;-99.054;2024-03-08T04:04:38;31.52;;;9.55;;
61385;SDS011;47256;18.904;-99.054;2024-03-08T04:07:06;22.98;;;9.95;;
61385;SDS011;47256;18.904;-99.054;2024-03-08T04:09:35;22.42;;;9.10;;
61385;SDS011;47256;18.904;-99.054;2024-03-08T04:12:07;26.52;;;7.95;;
61385;SDS011;47256;18.904;-99.054;2024-03-08T04:14:38;22.38;;;8.35;;
61385;SDS011;47256;18.904;-99.054;2024-03-08T04:17:09;23.02;;;9.25;;
61385;SDS011;47256;18.904;-99.054;2024-03-08T04:19:40;16.15;;;8.32;;
61385;SDS011;47256;18.904;-99.054;2024-03-08T04:22:13;30.00;;;8.18;;
61385;SDS011;47256;18.904;-99.054;2024-03-08T04:24:44;28.25;;;8.48;;
61385;SDS011;47256;18.904;-99.054;2024-03-08T04:27:13;22.08;;;8.38;;
61385;SDS011;47256;18.904;-99.054;2024-03-08T04:29:48;37.50;;;8.68;;
61385;SDS011;47256;18.904;-99.054;2024-03-08T04:32:21;26.98;;;8.23;;
61385;SDS011;47256;18.904;-99.054;2024-03-08T04:34:51;28.15;;;8.93;;
61385;SDS011;47256;18.904;-99.054;2024-03-08T04:37:22;24.83;;;7.95;;
61385;SDS011;47256;18.904;-99.054;2024-03-08T04:39:49;30.40;;;8.88;;
61385;SDS011;47256;18.904;-99.054;2024-03-08T04:42:19;21.40;;;8.38;;
61385;SDS011;47256;18.904;-99.054;2024-03-08T04:44:51;25.98;;;8.07;;
61385;SDS011;47256;18.904;-99.054;2024-03-08T04:47:22;26.42;;;9.13;;
61385;SDS011;47256;18.904;-99.054;2024-03-08T04:49:59;21.10;;;7.90;;
61385;SDS011;47256;18.904;-99.054;2024-03-08T04:52:26;39.58;;;10.02;;
61385;SDS011;47256;18.904;-99.054;2024-03-08T04:54:54;31.70;;;12.30;;
61385;SDS011;47256;18.904;-99.054;2024-03-08T04:57:21;24.05;;;9.75;;
61385;SDS011;47256;18.904;-99.054;2024-03-08T04:59:53;24.85;;;8.88;;
61385;SDS011;47256;18.904;-99.054;2024-03-08T05:02:20;18.88;;;8.05;;
61385;SDS011;47256;18.904;-99.054;2024-03-08T05:04:52;21.10;;;9.10;;
61385;SDS011;47256;18.904;-99.054;2024-03-08T05:07:20;19.25;;;8.05;;
61385;SDS011;47256;18.904;-99.054;2024-03-08T05:09:51;20.67;;;9.30;;
61385;SDS011;47256;18.904;-99.054;2024-03-08T05:12:25;20.50;;;9.98;;
61385;SDS011;47256;18.904;-99.054;2024-03-08T05:14:52;17.85;;;8.43;;
61385;SDS011;47256;18.904;-99.054;2024-03-08T05:17:23;19.67;;;7.75;;
61385;SDS011;47256;18.904;-99.054;2024-03-08T05:19:51;26.35;;;8.77;;
61385;SDS011;47256;18.904;-99.054;2024-03-08T05:22:18;16.27;;;8.05;;
61385;SDS011;47256;18.904;-99.054;2024-03-08T05:24:52;15.77;;;7.40;;
61385;SDS011;47256;18.904;-99.054;2024-03-08T05:27:22;13.40;;;6.45;;
61385;SDS011;47256;18.904;-99.054;2024-03-08T05:29:54;16.35;;;5.97;;
61385;SDS011;47256;18.904;-99.054;2024-03-08T05:32:23;14.40;;;6.45;;
61385;SDS011;47256;18.904;-99.054;2024-03-08T05:34:52;13.32;;;6.53;;
61385;SDS011;47256;18.904;-99.054;2024-03-08T05:37:23;18.10;;;6.93;;
61385;SDS011;47256;18.904;-99.054;2024-03-08T05:39:54;20.67;;;5.85;;
61385;SDS011;47256;18.904;-99.054;2024-03-08T05:45:12;21.98;;;7.28;;
61385;SDS011;47256;18.904;-99.054;2024-03-08T05:47:42;17.95;;;6.60;;
61385;SDS011;47256;18.904;-99.054;2024-03-08T05:50:10;28.88;;;7.10;;
61385;SDS011;47256;18.904;-99.054;2024-03-08T05:52:38;20.83;;;6.80;;
61385;SDS011;47256;18.904;-99.054;2024-03-08T05:55:05;19.33;;;6.85;;
61385;SDS011;47256;18.904;-99.054;2024-03-08T05:57:35;21.67;;;8.02;;
61385;SDS011;47256;18.904;-99.054;2024-03-08T06:00:06;19.23;;;6.90;;
61385;SDS011;47256;18.904;-99.054;2024-03-08T06:02:38;18.10;;;6.75;;
61385;SDS011;47256;18.904;-99.054;2024-03-08T06:05:08;17.17;;;7.00;;
61385;SDS011;47256;18.904;-99.054;2024-03-08T06:07:39;14.55;;;6.82;;
61385;SDS011;47256;18.904;-99.054;2024-03-08T06:10:11;14.25;;;6.65;;
61385;SDS011;47256;18.904;-99.054;2024-03-08T06:12:39;16.52;;;6.15;;
61385;SDS011;47256;18.904;-99.054;2024-03-08T06:15:10;14.30;;;6.90;;
61385;SDS011;47256;18.904;-99.054;2024-03-08T06:17:41;18.92;;;6.40;;
61385;SDS011;47256;18.904;-99.054;2024-03-08T06:20:10;23.40;;;8.23;;
61385;SDS011;47256;18.904;-99.054;2024-03-08T06:22:42;16.67;;;7.93;;
61385;SDS011;47256;18.904;-99.054;2024-03-08T06:25:11;22.83;;;9.95;;
61385;SDS011;47256;18.904;-99.054;2024-03-08T06:27:41;23.60;;;8.68;;
61385;SDS011;47256;18.904;-99.054;2024-03-08T06:30:12;27.90;;;9.60;;
61385;SDS011;47256;18.904;-99.054;2024-03-08T06:32:51;27.55;;;8.60;;
61385;SDS011;47256;18.904;-99.054;2024-03-08T06:35:21;17.20;;;8.55;;
61385;SDS011;47256;18.904;-99.054;2024-03-08T06:37:48;23.27;;;8.50;;
61385;SDS011;47256;18.904;-99.054;2024-03-08T06:40:16;22.77;;;9.43;;
61385;SDS011;47256;18.904;-99.054;2024-03-08T06:42:44;21.90;;;9.10;;
61385;SDS011;47256;18.904;-99.054;2024-03-08T06:45:15;19.75;;;9.27;;
61385;SDS011;47256;18.904;-99.054;2024-03-08T06:47:48;28.88;;;9.50;;
61385;SDS011;47256;18.904;-99.054;2024-03-08T06:50:18;28.67;;;10.10;;
61385;SDS011;47256;18.904;-99.054;2024-03-08T06:52:51;24.88;;;9.70;;
61385;SDS011;47256;18.904;-99.054;2024-03-08T06:55:20;28.65;;;9.80;;
61385;SDS011;47256;18.904;-99.054;2024-03-08T06:57:48;21.20;;;9.30;;
61385;SDS011;47256;18.904;-99.054;2024-03-08T07:00:16;22.60;;;9.68;;
61385;SDS011;47256;18.904;-99.054;2024-03-08T07:02:52;22.17;;;11.25;;
61385;SDS011;47256;18.904;-99.054;2024-03-08T07:05:27;23.77;;;9.40;;
61385;SDS011;47256;18.904;-99.054;2024-03-08T07:07:54;22.92;;;9.70;;
61385;SDS011;47256;18.904;-99.054;2024-03-08T07:10:23;21.17;;;9.25;;
61385;SDS011;47256;18.904;-99.054;2024-03-08T07:12:56;22.85;;;9.73;;
61385;SDS011;47256;18.904;-99.054;2024-03-08T07:15:23;16.45;;;7.80;;
61385;SDS011;47256;18.904;-99.054;2024-03-08T07:17:51;26.65;;;8.77;;
61385;SDS011;47256;18.904;-99.054;2024-03-08T07:20:24;22.77;;;9.80;;
61385;SDS011;47256;18.904;-99.054;2024-03-08T07:22:52;25.33;;;9.70;;
61385;SDS011;47256;18.904;-99.054;2024-03-08T07:25:22;23.70;;;8.80;;
61385;SDS011;47256;18.904;-99.054;2024-03-08T07:27:51;18.92;;;8.27;;
61385;SDS011;47256;18.904;-99.054;2024-03-08T07:30:23;18.50;;;8.07;;
61385;SDS011;47256;18.904;-99.054;2024-03-08T07:33:22;23.80;;;8.98;;
61385;SDS011;47256;18.904;-99.054;2024-03-08T07:35:52;19.00;;;8.85;;
61385;SDS011;47256;18.904;-99.054;2024-03-08T07:38:33;24.00;;;9.18;;
61385;SDS011;47256;18.904;-99.054;2024-03-08T07:41:02;18.48;;;7.47;;
61385;SDS011;47256;18.904;-99.054;2024-03-08T07:43:32;14.50;;;7.25;;
61385;SDS011;47256;18.904;-99.054;2024-03-08T07:46:00;17.88;;;8.50;;
61385;SDS011;47256;18.904;-99.054;2024-03-08T07:48:31;21.45;;;8.23;;
61385;SDS011;47256;18.904;-99.054;2024-03-08T07:51:03;20.58;;;8.18;;
61385;SDS011;47256;18.904;-99.054;2024-03-08T07:53:36;15.63;;;7.50;;
61385;SDS011;47256;18.904;-99.054;2024-03-08T07:56:08;20.23;;;8.68;;
61385;SDS011;47256;18.904;-99.054;2024-03-08T07:58:42;21.00;;;8.60;;
61385;SDS011;47256;18.904;-99.054;2024-03-08T08:01:21;22.33;;;8.57;;
61385;SDS011;47256;18.904;-99.054;2024-03-08T08:03:52;22.23;;;8.00;;
61385;SDS011;47256;18.904;-99.054;2024-03-08T08:06:21;18.73;;;7.03;;
61385;SDS011;47256;18.904;-99.054;2024-03-08T08:08:52;22.52;;;8.00;;
61385;SDS011;47256;18.904;-99.054;2024-03-08T08:11:25;15.80;;;8.30;;
61385;SDS011;47256;18.904;-99.054;2024-03-08T08:13:56;15.70;;;7.70;;
61385;SDS011;47256;18.904;-99.054;2024-03-08T08:16:25;19.50;;;7.38;;
61385;SDS011;47256;18.904;-99.054;2024-03-08T08:18:56;16.58;;;7.07;;
61385;SDS011;47256;18.904;-99.054;2024-03-08T08:21:24;21.00;;;8.10;;
61385;SDS011;47256;18.904;-99.054;2024-03-08T08:24:12;17.00;;;7.00;;
61385;SDS011;47256;18.904;-99.054;2024-03-08T08:26:43;17.73;;;7.20;;
61385;SDS011;47256;18.904;-99.054;2024-03-08T08:29:11;12.32;;;6.22;;
61385;SDS011;47256;18.904;-99.054;2024-03-08T08:31:40;19.67;;;6.90;;
61385;SDS011;47256;18.904;-99.054;2024-03-08T08:34:11;13.98;;;6.45;;
61385;SDS011;47256;18.904;-99.054;2024-03-08T08:36:48;11.57;;;6.05;;
61385;SDS011;47256;18.904;-99.054;2024-03-08T08:39:26;14.30;;;6.22;;
61385;SDS011;47256;18.904;-99.054;2024-03-08T08:41:54;17.45;;;6.15;;
61385;SDS011;47256;18.904;-99.054;2024-03-08T08:44:22;15.77;;;6.95;;
61385;SDS011;47256;18.904;-99.054;2024-03-08T08:46:50;15.98;;;7.00;;
61385;SDS011;47256;18.904;-99.054;2024-03-08T08:49:17;17.33;;;6.53;;
61385;SDS011;47256;18.904;-99.054;2024-03-08T08:51:52;18.60;;;7.53;;
61385;SDS011;47256;18.904;-99.054;2024-03-08T08:54:19;14.90;;;6.72;;
61385;SDS011;47256;18.904;-99.054;2024-03-08T08:56:48;11.13;;;6.35;;
61385;SDS011;47256;18.904;-99.054;2024-03-08T08:59:16;16.58;;;5.60;;
61385;SDS011;47256;18.904;-99.054;2024-03-08T09:01:55;15.05;;;6.70;;
61385;SDS011;47256;18.904;-99.054;2024-03-08T09:04:23;16.95;;;5.72;;
61385;SDS011;47256;18.904;-99.054;2024-03-08T09:07:02;12.70;;;5.40;;
61385;SDS011;47256;18.904;-99.054;2024-03-08T09:09:32;13.02;;;6.20;;
61385;SDS011;47256;18.904;-99.054;2024-03-08T09:12:03;17.50;;;4.97;;
61385;SDS011;47256;18.904;-99.054;2024-03-08T09:14:31;10.75;;;5.82;;
61385;SDS011;47256;18.904;-99.054;2024-03-08T09:17:06;10.63;;;5.18;;
61385;SDS011;47256;18.904;-99.054;2024-03-08T09:19:39;88.32;;;30.50;;
61385;SDS011;47256;18.904;-99.054;2024-03-08T09:22:12;81.30;;;29.38;;
61385;SDS011;47256;18.904;-99.054;2024-03-08T09:24:39;104.88;;;40.65;;
61385;SDS011;47256;18.904;-99.054;2024-03-08T09:27:11;166.23;;;67.28;;
61385;SDS011;47256;18.904;-99.054;2024-03-08T09:29:38;152.07;;;61.45;;
61385;SDS011;47256;18.904;-99.054;2024-03-08T09:32:09;68.95;;;28.23;;
61385;SDS011;47256;18.904;-99.054;2024-03-08T09:34:39;42.28;;;15.95;;
61385;SDS011;47256;18.904;-99.054;2024-03-08T09:37:07;22.60;;;9.27;;
61385;SDS011;47256;18.904;-99.054;2024-03-08T09:39:38;57.58;;;21.10;;
61385;SDS011;47256;18.904;-99.054;2024-03-08T09:42:06;35.10;;;14.85;;
61385;SDS011;47256;18.904;-99.054;2024-03-08T09:44:36;50.92;;;20.33;;
61385;SDS011;47256;18.904;-99.054;2024-03-08T09:47:06;18.25;;;7.35;;
61385;SDS011;47256;18.904;-99.054;2024-03-08T09:49:35;16.13;;;6.65;;
61385;SDS011;47256;18.904;-99.054;2024-03-08T09:52:09;21.58;;;10.77;;
61385;SDS011;47256;18.904;-99.054;2024-03-08T09:54:38;20.00;;;8.95;;
61385;SDS011;47256;18.904;-99.054;2024-03-08T09:57:10;24.25;;;11.25;;
61385;SDS011;47256;18.904;-99.054;2024-03-08T09:59:38;21.52;;;8.55;;
61385;SDS011;47256;18.904;-99.054;2024-03-08T10:02:16;47.55;;;20.25;;
61385;SDS011;47256;18.904;-99.054;2024-03-08T10:04:48;56.92;;;22.52;;
61385;SDS011;47256;18.904;-99.054;2024-03-08T10:07:20;42.78;;;18.60;;
61385;SDS011;47256;18.904;-99.054;2024-03-08T10:09:48;48.55;;;19.52;;
61385;SDS011;47256;18.904;-99.054;2024-03-08T10:12:20;59.80;;;21.70;;
61385;SDS011;47256;18.904;-99.054;2024-03-08T10:14:48;68.50;;;25.13;;
61385;SDS011;47256;18.904;-99.054;2024-03-08T10:17:16;96.28;;;32.85;;
61385;SDS011;47256;18.904;-99.054;2024-03-08T10:19:51;105.00;;;37.08;;
61385;SDS011;47256;18.904;-99.054;2024-03-08T10:22:19;86.70;;;31.42;;
61385;SDS011;47256;18.904;-99.054;2024-03-08T10:24:46;73.03;;;26.17;;
61385;SDS011;47256;18.904;-99.054;2024-03-08T10:27:16;62.75;;;25.67;;
61385;SDS011;47256;18.904;-99.054;2024-03-08T10:29:50;58.50;;;22.13;;
61385;SDS011;47256;18.904;-99.054;2024-03-08T10:32:19;58.60;;;21.52;;
61385;SDS011;47256;18.904;-99.054;2024-03-08T10:34:46;39.05;;;12.52;;
61385;SDS011;47256;18.904;-99.054;2024-03-08T10:37:21;22.15;;;7.55;;
61385;SDS011;47256;18.904;-99.054;2024-03-08T10:40:04;11.55;;;6.15;;
61385;SDS011;47256;18.904;-99.054;2024-03-08T10:42:52;18.27;;;8.48;;
61385;SDS011;47256;18.904;-99.054;2024-03-08T10:45:31;15.18;;;5.97;;
61385;SDS011;47256;18.904;-99.054;2024-03-08T10:50:54;11.07;;;5.30;;
61385;SDS011;47256;18.904;-99.054;2024-03-08T10:53:26;11.27;;;5.35;;
61385;SDS011;47256;18.904;-99.054;2024-03-08T10:55:56;11.70;;;6.60;;
61385;SDS011;47256;18.904;-99.054;2024-03-08T10:58:24;13.65;;;5.55;;
61385;SDS011;47256;18.904;-99.054;2024-03-08T11:00:54;13.77;;;6.53;;
61385;SDS011;47256;18.904;-99.054;2024-03-08T11:08:49;9.40;;;6.00;;
61385;SDS011;47256;18.904;-99.054;2024-03-08T11:11:34;14.15;;;5.85;;
61385;SDS011;47256;18.904;-99.054;2024-03-08T11:14:42;10.45;;;6.32;;
61385;SDS011;47256;18.904;-99.054;2024-03-08T11:17:15;10.93;;;5.38;;
61385;SDS011;47256;18.904;-99.054;2024-03-08T11:19:51;10.52;;;5.43;;
61385;SDS011;47256;18.904;-99.054;2024-03-08T11:22:23;11.23;;;5.38;;
61385;SDS011;47256;18.904;-99.054;2024-03-08T11:25:04;11.23;;;5.57;;
61385;SDS011;47256;18.904;-99.054;2024-03-08T11:27:35;15.27;;;6.70;;
61385;SDS011;47256;18.904;-99.054;2024-03-08T11:30:10;14.00;;;5.72;;
61385;SDS011;47256;18.904;-99.054;2024-03-08T11:32:38;9.07;;;6.07;;
61385;SDS011;47256;18.904;-99.054;2024-03-08T11:35:19;12.95;;;5.90;;
61385;SDS011;47256;18.904;-99.054;2024-03-08T11:37:53;10.25;;;5.82;;
61385;SDS011;47256;18.904;-99.054;2024-03-08T11:40:21;10.48;;;6.45;;
61385;SDS011;47256;18.904;-99.054;2024-03-08T11:42:49;13.95;;;6.15;;
61385;SDS011;47256;18.904;-99.054;2024-03-08T11:45:27;16.10;;;7.53;;
61385;SDS011;47256;18.904;-99.054;2024-03-08T11:47:54;20.83;;;6.72;;
61385;SDS011;47256;18.904;-99.054;2024-03-08T11:50:22;11.77;;;6.13;;
61385;SDS011;47256;18.904;-99.054;2024-03-08T11:52:50;7.60;;;4.65;;
61385;SDS011;47256;18.904;-99.054;2024-03-08T11:55:18;18.52;;;7.03;;
61385;SDS011;47256;18.904;-99.054;2024-03-08T11:57:46;15.23;;;5.93;;
61385;SDS011;47256;18.904;-99.054;2024-03-08T12:00:18;12.77;;;6.60;;
61385;SDS011;47256;18.904;-99.054;2024-03-08T12:03:01;13.13;;;6.90;;
61385;SDS011;47256;18.904;-99.054;2024-03-08T12:05:29;20.88;;;6.65;;
61385;SDS011;47256;18.904;-99.054;2024-03-08T12:08:00;16.38;;;7.35;;
61385;SDS011;47256;18.904;-99.054;2024-03-08T12:10:40;13.45;;;6.70;;
61385;SDS011;47256;18.904;-99.054;2024-03-08T12:13:12;17.58;;;6.53;;
61385;SDS011;47256;18.904;-99.054;2024-03-08T12:15:40;14.95;;;6.82;;
61385;SDS011;47256;18.904;-99.054;2024-03-08T12:18:13;15.43;;;6.57;;
61385;SDS011;47256;18.904;-99.054;2024-03-08T12:20:40;17.85;;;6.93;;
61385;SDS011;47256;18.904;-99.054;2024-03-08T12:23:16;11.60;;;6.95;;
61385;SDS011;47256;18.904;-99.054;2024-03-08T12:25:46;21.65;;;6.28;;
61385;SDS011;47256;18.904;-99.054;2024-03-08T12:28:18;16.20;;;6.80;;
61385;SDS011;47256;18.904;-99.054;2024-03-08T12:30:49;19.45;;;7.57;;
61385;SDS011;47256;18.904;-99.054;2024-03-08T12:33:23;24.33;;;6.57;;
61385;SDS011;47256;18.904;-99.054;2024-03-08T12:35:53;29.63;;;7.53;;
61385;SDS011;47256;18.904;-99.054;2024-03-08T12:38:29;25.13;;;7.13;;
61385;SDS011;47256;18.904;-99.054;2024-03-08T12:40:58;21.92;;;7.97;;
61385;SDS011;47256;18.904;-99.054;2024-03-08T12:43:32;21.10;;;8.55;;
61385;SDS011;47256;18.904;-99.054;2024-03-08T12:46:05;29.00;;;8.77;;
61385;SDS011;47256;18.904;-99.054;2024-03-08T12:48:35;28.42;;;9.18;;
61385;SDS011;47256;18.904;-99.054;2024-03-08T12:51:12;18.70;;;8.27;;
61385;SDS011;47256;18.904;-99.054;2024-03-08T12:53:44;28.40;;;8.93;;
61385;SDS011;47256;18.904;-99.054;2024-03-08T12:56:13;34.03;;;8.35;;
61385;SDS011;47256;18.904;-99.054;2024-03-08T12:59:01;28.92;;;9.88;;
61385;SDS011;47256;18.904;-99.054;2024-03-08T13:01:28;29.52;;;7.53;;
61385;SDS011;47256;18.904;-99.054;2024-03-08T13:04:01;15.52;;;6.30;;
61385;SDS011;47256;18.904;-99.054;2024-03-08T13:06:29;11.70;;;5.47;;
61385;SDS011;47256;18.904;-99.054;2024-03-08T13:08:59;16.67;;;6.20;;
61385;SDS011;47256;18.904;-99.054;2024-03-08T13:11:32;27.83;;;9.85;;
61385;SDS011;47256;18.904;-99.054;2024-03-08T13:14:14;16.83;;;8.23;;
61385;SDS011;47256;18.904;-99.054;2024-03-08T13:16:43;34.22;;;8.43;;
61385;SDS011;47256;18.904;-99.054;2024-03-08T13:19:13;79.70;;;12.70;;
61385;SDS011;47256;18.904;-99.054;2024-03-08T13:21:47;74.88;;;13.27;;
61385;SDS011;47256;18.904;-99.054;2024-03-08T13:24:21;63.15;;;11.63;;
61385;SDS011;47256;18.904;-99.054;2024-03-08T13:26:52;32.67;;;7.70;;
61385;SDS011;47256;18.904;-99.054;2024-03-08T13:29:25;38.80;;;9.13;;
61385;SDS011;47256;18.904;-99.054;2024-03-08T13:31:53;30.42;;;7.88;;
61385;SDS011;47256;18.904;-99.054;2024-03-08T13:34:25;53.25;;;10.13;;
61385;SDS011;47256;18.904;-99.054;2024-03-08T13:37:28;59.53;;;10.52;;
61385;SDS011;47256;18.904;-99.054;2024-03-08T13:40:06;51.92;;;10.25;;
61385;SDS011;47256;18.904;-99.054;2024-03-08T13:42:37;86.63;;;10.85;;
61385;SDS011;47256;18.904;-99.054;2024-03-08T13:45:08;53.08;;;9.20;;
61385;SDS011;47256;18.904;-99.054;2024-03-08T13:47:43;54.17;;;10.13;;
61385;SDS011;47256;18.904;-99.054;2024-03-08T13:50:20;38.33;;;10.57;;
61385;SDS011;47256;18.904;-99.054;2024-03-08T13:52:50;37.75;;;10.35;;
61385;SDS011;47256;18.904;-99.054;2024-03-08T13:55:20;34.83;;;9.38;;
61385;SDS011;47256;18.904;-99.054;2024-03-08T13:57:48;34.75;;;8.95;;
61385;SDS011;47256;18.904;-99.054;2024-03-08T14:00:28;32.40;;;8.98;;
61385;SDS011;47256;18.904;-99.054;2024-03-08T14:03:02;36.20;;;9.13;;
61385;SDS011;47256;18.904;-99.054;2024-03-08T14:05:32;20.40;;;7.53;;
61385;SDS011;47256;18.904;-99.054;2024-03-08T14:08:08;40.92;;;8.98;;
61385;SDS011;47256;18.904;-99.054;2024-03-08T14:10:44;41.03;;;8.65;;
61385;SDS011;47256;18.904;-99.054;2024-03-08T14:13:16;57.03;;;9.77;;
61385;SDS011;47256;18.904;-99.054;2024-03-08T14:15:52;46.50;;;12.07;;
61385;SDS011;47256;18.904;-99.054;2024-03-08T14:18:25;73.25;;;19.25;;
61385;SDS011;47256;18.904;-99.054;2024-03-08T14:20:56;73.72;;;20.25;;
61385;SDS011;47256;18.904;-99.054;2024-03-08T14:23:27;52.97;;;17.23;;
61385;SDS011;47256;18.904;-99.054;2024-03-08T14:25:56;81.85;;;23.55;;
61385;SDS011;47256;18.904;-99.054;2024-03-08T14:28:28;59.17;;;21.55;;
61385;SDS011;47256;18.904;-99.054;2024-03-08T14:31:02;56.55;;;16.45;;
61385;SDS011;47256;18.904;-99.054;2024-03-08T14:33:31;75.75;;;17.35;;
61385;SDS011;47256;18.904;-99.054;2024-03-08T14:36:02;50.85;;;16.80;;
61385;SDS011;47256;18.904;-99.054;2024-03-08T14:38:37;43.08;;;13.13;;
61385;SDS011;47256;18.904;-99.054;2024-03-08T14:41:05;45.78;;;14.70;;